Main page
METAR-TAF:

METAR-TAF

Airports :

Queen Alia International Airport

Amman-Queen Alia, Jordan

latitude: 31-40N, longitude: 035-58E, elevation: 721 m

Current weather observation

The report was made 57 minutes ago, at 16:00 UTC
Wind 9 kt from the Northwest
Temperature 22°C
Humidity 46%
Pressure 1021 hPa
Visibility: 6000 m

METAR: OJAI 211600Z 32009KT 6000 NSC 22/10 Q1021 NOSIG

Time: 19:57 (16:57 UTC)

Forecast

The report was made 6 hours and 7 minutes ago, at 10:50 UTC
Forecast valid from 20 at 12 UTC to 21 at 18 UTC
Wind 12 kt from the East
Visibility: 5000 m
Few clouds at a height of 4000 ft
haze
Becoming
from 21 at 18 UTC to 21 at 20 UTC
Wind 8 kt from the West/Northwest
Probability 30% :
Temporary
from 22 at 02 UTC to 22 at 05 UTC
Wind 2 kt from variable directions
Visibility: 4000 m
mist

TAF: OJAI 211050Z 2012/2118 08012KT 5000 HZ FEW040 BECMG 2118/2120 29008KT PROB30 TEMPO 2202/2205 VRB02KT 4000 BR

Weather observations and forecasts of more than 4000 airports (METAR and TAF reports).

The available stations are represented by yellow and red dots on the map.

Hover mouse over dot to see the name of the station.

Then click to see weather observations and forecasts.

To change the map : click on the green buttons with a black cross to zoom in, on the green button with a dash to zoom out, or on the green arrows for adjacent maps.


METAR-TAF: